Time;durP1;ratioP1;P1;durP2;ratioP2;P2;SDS_P1;SDS_P2;PMS_P1;PMS_P2;Temp;Humidity;BMP_temperature;BMP_pressure;BME280_temperature;BME280_humidity;BME280_pressure;Samples;Min_cycle;Max_cycle;Signal;HPM_P1;HPM_P2
2022/03/04 00:00:27;;;;;;;;;61.75;48.00;;;;;11.44;62.98;101510.25;2442597;28;45425;-83
2022/03/04 00:01:38;;;;;;;;;61.00;47.25;;;;;11.43;63.17;101519.91;2452117;27;46147;-83
2022/03/04 00:02:48;;;;;;;;;61.00;48.00;;;;;11.40;63.20;101513.84;2444608;27;45230;-84
2022/03/04 00:03:59;;;;;;;;;62.75;49.00;;;;;11.39;63.10;101512.13;2442295;28;45340;-85
2022/03/04 00:05:09;;;;;;;;;64.75;49.50;;;;;11.36;63.26;101519.19;2442167;28;45219;-84
2022/03/04 00:06:19;;;;;;;;;61.00;45.75;;;;;11.35;63.24;101519.25;2442136;28;46570;-85
2022/03/04 00:07:30;;;;;;;;;61.00;46.25;;;;;11.33;63.33;101518.41;2442472;28;45152;-84
2022/03/04 00:08:41;;;;;;;;;64.75;49.50;;;;;11.34;63.44;101525.38;2442007;28;46260;-84
2022/03/04 00:09:51;;;;;;;;;59.00;46.00;;;;;11.32;63.35;101524.56;2442357;28;44622;-85
2022/03/04 00:11:03;;;;;;;;;66.50;50.25;;;;;11.32;63.37;101524.56;2447648;28;46482;-85
2022/03/04 00:12:14;;;;;;;;;64.25;49.75;;;;;11.29;63.49;101527.25;2442410;28;45261;-84
2022/03/04 00:13:24;;;;;;;;;59.50;48.00;;;;;11.25;63.61;101519.47;2447464;28;45532;-84
2022/03/04 00:14:34;;;;;;;;;62.25;51.00;;;;;11.24;63.29;101517.72;2447605;28;45434;-84
2022/03/04 00:15:45;;;;;;;;;68.25;52.00;;;;;11.21;63.49;101516.94;2441361;28;45330;-84
2022/03/04 00:16:55;;;;;;;;;62.25;49.75;;;;;11.20;63.55;101523.97;2445186;28;44805;-85
2022/03/04 00:18:05;;;;;;;;;63.00;49.50;;;;;11.20;63.58;101518.69;2450298;28;47033;-84
2022/03/04 00:19:16;;;;;;;;;62.50;47.75;;;;;11.18;63.51;101517.88;2449149;28;45220;-85
2022/03/04 00:20:27;;;;;;;;;66.00;48.75;;;;;11.17;63.44;101521.38;2446288;27;46448;-85
2022/03/04 00:21:41;;;;;;;;;58.25;46.00;;;;;11.15;63.59;101517.94;2444070;28;45216;-85
2022/03/04 00:22:51;;;;;;;;;58.25;46.75;;;;;11.12;63.66;101516.25;2460925;27;48023;-84
2022/03/04 00:24:02;;;;;;;;;62.00;47.25;;;;;11.11;63.50;101514.50;2458570;27;45300;-85
2022/03/04 00:25:13;;;;;;;;;62.00;48.00;;;;;11.09;63.66;101515.44;2451824;27;45448;-85
2022/03/04 00:26:23;;;;;;;;;61.00;47.75;;;;;11.08;63.62;101511.09;2451892;27;45448;-86
2022/03/04 00:27:34;;;;;;;;;65.50;48.75;;;;;11.07;63.56;101517.22;2446918;28;47107;-86
2022/03/04 00:28:44;;;;;;;;;62.75;48.00;;;;;11.04;63.60;101512.91;2441777;28;45268;-85
2022/03/04 00:29:54;;;;;;;;;63.25;47.50;;;;;11.01;63.69;101516.47;2441283;28;47313;-85
2022/03/04 00:31:05;;;;;;;;;63.75;48.25;;;;;11.00;63.72;101513.88;2441629;28;44622;-86
2022/03/04 00:32:15;;;;;;;;;61.75;49.00;;;;;10.99;63.94;101515.63;2444535;28;45381;-85
2022/03/04 00:33:25;;;;;;;;;67.00;50.75;;;;;10.99;63.97;101515.63;2452029;27;45303;-85
2022/03/04 00:34:36;;;;;;;;;60.50;46.50;;;;;10.98;64.10;101515.69;2442971;27;46277;-85
2022/03/04 00:35:46;;;;;;;;;63.75;47.75;;;;;10.96;63.85;101518.34;2448838;27;45228;-86
2022/03/04 00:36:57;;;;;;;;;62.75;47.75;;;;;10.96;64.07;101515.72;2460830;27;47126;-85
2022/03/04 00:38:07;;;;;;;;;63.25;49.75;;;;;10.96;63.76;101518.34;2450795;27;45290;-85
2022/03/04 00:39:18;;;;;;;;;66.25;50.50;;;;;10.99;63.98;101518.28;2441881;28;46283;-85
2022/03/04 00:40:28;;;;;;;;;61.75;48.50;;;;;10.96;64.53;101515.72;2442087;28;44575;-85
2022/03/04 00:41:39;;;;;;;;;56.75;45.50;;;;;10.98;64.25;101513.06;2442057;28;45587;-85
2022/03/04 00:42:49;;;;;;;;;63.00;49.75;;;;;10.96;64.18;101510.47;2449967;28;45209;-85
2022/03/04 00:44:00;;;;;;;;;57.50;46.00;;;;;10.97;64.26;101509.56;2447559;27;46090;-86
2022/03/04 00:45:11;;;;;;;;;64.00;47.75;;;;;10.99;64.31;101504.25;2442502;28;45274;-85
2022/03/04 00:46:21;;;;;;;;;62.25;49.00;;;;;10.97;64.22;101503.41;2450659;28;48204;-85
2022/03/04 00:47:32;;;;;;;;;59.00;48.25;;;;;10.95;64.36;101503.47;2443325;28;45434;-85
2022/03/04 00:48:44;;;;;;;;;59.00;46.75;;;;;10.95;64.33;101503.47;2443465;28;47210;-85
2022/03/04 00:49:54;;;;;;;;;66.00;51.00;;;;;10.94;64.23;101504.34;2451005;28;45247;-85
2022/03/04 00:51:04;;;;;;;;;62.50;48.00;;;;;10.96;64.26;101512.22;2442114;27;45416;-85
2022/03/04 00:52:15;;;;;;;;;63.25;47.75;;;;;10.94;64.32;101506.97;2441116;28;45211;-86
2022/03/04 00:53:25;;;;;;;;;66.25;51.50;;;;;10.95;64.04;101503.47;2441033;28;45699;-85
2022/03/04 00:54:36;;;;;;;;;64.25;50.75;;;;;10.94;64.09;101509.59;2441959;28;44747;-85
2022/03/04 00:55:46;;;;;;;;;63.00;49.75;;;;;10.92;64.16;101508.78;2441774;28;45608;-85
2022/03/04 00:56:57;;;;;;;;;60.25;48.50;;;;;10.93;64.07;101505.28;2441884;28;44668;-85
2022/03/04 00:58:08;;;;;;;;;64.00;50.00;;;;;10.92;63.97;101506.16;2442006;28;45271;-85
2022/03/04 00:59:19;;;;;;;;;64.50;48.50;;;;;10.89;64.04;101499.19;2442225;27;45141;-85
2022/03/04 01:00:29;;;;;;;;;62.50;47.50;;;;;10.88;64.06;101501.88;2449021;28;45415;-85
2022/03/04 01:01:40;;;;;;;;;62.00;48.75;;;;;10.85;64.09;101504.56;2444696;27;45211;-85
2022/03/04 01:02:50;;;;;;;;;64.75;51.25;;;;;10.82;64.21;101497.59;2444692;28;47295;-86
2022/03/04 01:04:00;;;;;;;;;60.00;46.00;;;;;10.83;64.03;101503.72;2449871;28;44633;-86
2022/03/04 01:05:11;;;;;;;;;62.00;48.75;;;;;10.80;64.15;101496.78;2441593;28;45575;-85
2022/03/04 01:06:21;;;;;;;;;59.00;48.00;;;;;10.79;63.86;101505.56;2446777;28;45307;-85
2022/03/04 01:07:32;;;;;;;;;66.50;49.75;;;;;10.76;63.99;101501.25;2449383;27;45537;-82
2022/03/04 01:08:42;;;;;;;;;65.75;51.00;;;;;10.75;63.93;101501.25;2441937;28;44727;-81
2022/03/04 01:09:52;;;;;;;;;63.75;48.75;;;;;10.72;64.01;101501.34;2449881;28;45593;-80
2022/03/04 01:11:03;;;;;;;;;60.50;47.25;;;;;10.71;64.17;101511.00;2447053;27;45250;-81
2022/03/04 01:12:13;;;;;;;;;63.25;48.50;;;;;10.68;64.34;101511.06;2441626;28;45337;-81
2022/03/04 01:13:24;;;;;;;;;59.75;47.75;;;;;10.68;63.98;101511.06;2447027;28;45554;-81
2022/03/04 01:14:34;;;;;;;;;60.50;46.25;;;;;10.68;63.90;101516.31;2451312;27;46215;-81
2022/03/04 01:15:45;;;;;;;;;63.75;50.00;;;;;10.63;64.08;101512.91;2441883;28;45239;-81
2022/03/04 01:16:55;;;;;;;;;60.25;47.75;;;;;10.64;64.29;101520.75;2447576;28;46454;-81
2022/03/04 01:18:05;;;;;;;;;60.00;46.25;;;;;10.60;64.27;101513.84;2460498;27;45286;-81
2022/03/04 01:19:16;;;;;;;;;56.75;46.25;;;;;10.57;64.03;101514.75;2458141;27;45311;-81
2022/03/04 01:20:27;;;;;;;;;61.25;47.50;;;;;10.56;64.28;101526.19;2451372;27;45432;-81
2022/03/04 01:21:38;;;;;;;;;57.75;45.75;;;;;10.50;64.23;101513.13;2455938;27;46090;-81
2022/03/04 01:22:49;;;;;;;;;62.00;48.50;;;;;10.52;63.88;101516.63;2449754;28;45242;-81
2022/03/04 01:23:59;;;;;;;;;61.25;46.75;;;;;10.48;64.23;101520.19;2451394;28;45333;-81
2022/03/04 01:25:11;;;;;;;;;65.75;49.25;;;;;10.47;64.07;101515.81;2444480;27;45211;-82
2022/03/04 01:26:21;;;;;;;;;65.00;49.25;;;;;10.46;63.83;101527.22;2441581;28;45441;-82
2022/03/04 01:27:32;;;;;;;;;60.50;48.50;;;;;10.41;64.34;101518.56;2441831;28;44696;-81
2022/03/04 01:28:42;;;;;;;;;60.25;45.75;;;;;10.39;64.15;101509.84;2441640;28;45334;-80
2022/03/04 01:29:53;;;;;;;;;63.50;50.00;;;;;10.36;64.04;101518.66;2441692;28;44775;-80
2022/03/04 01:31:03;;;;;;;;;61.75;49.00;;;;;10.33;64.11;101519.59;2441612;28;46392;-80
2022/03/04 01:32:14;;;;;;;;;63.25;49.00;;;;;10.31;64.06;101516.13;2441533;28;44689;-80
2022/03/04 01:33:24;;;;;;;;;64.50;48.75;;;;;10.30;64.13;101517.00;2443067;28;45349;-80
2022/03/04 01:34:35;;;;;;;;;66.75;49.50;;;;;10.28;64.58;101510.91;2441683;28;44610;-80
2022/03/04 01:35:45;;;;;;;;;59.25;46.25;;;;;10.29;64.27;101517.91;2441567;27;45413;-80
2022/03/04 01:36:56;;;;;;;;;59.25;46.25;;;;;10.26;64.39;101517.97;2441489;28;44711;-80
2022/03/04 01:38:06;;;;;;;;;62.50;49.00;;;;;10.27;64.32;101510.97;2441406;28;46379;-80
2022/03/04 01:39:16;;;;;;;;;63.25;49.25;;;;;10.22;64.57;101514.53;2441620;28;45169;-80
2022/03/04 01:40:27;;;;;;;;;63.50;48.75;;;;;10.24;64.61;101517.13;2441471;28;45259;-80
2022/03/04 01:41:37;;;;;;;;;63.25;48.25;;;;;10.21;64.72;101517.19;2441570;28;45165;-80
2022/03/04 01:42:48;;;;;;;;;63.00;49.50;;;;;10.21;64.77;101517.19;2441658;28;45250;-79
2022/03/04 01:43:58;;;;;;;;;63.00;49.00;;;;;10.18;64.89;101512.84;2441694;28;45172;-80
2022/03/04 01:45:09;;;;;;;;;62.50;49.00;;;;;10.19;64.97;101516.34;2446510;28;47808;-80
2022/03/04 01:46:27;;;;;;;;;60.75;47.50;;;;;10.19;64.67;101513.72;2450630;28;44596;-80
2022/03/04 01:47:44;;;;;;;;;63.50;48.50;;;;;10.17;64.88;101510.28;2441289;28;46600;-81
2022/03/04 01:48:55;;;;;;;;;63.00;49.50;;;;;10.17;64.91;101516.41;2441464;28;45369;-80
2022/03/04 01:50:07;;;;;;;;;60.50;47.00;;;;;10.19;64.94;101516.34;2441210;28;45591;-80
2022/03/04 01:51:17;;;;;;;;;59.75;48.00;;;;;10.19;64.90;101519.00;2441564;28;45173;-84
2022/03/04 01:52:28;;;;;;;;;63.00;48.00;;;;;10.18;65.14;101515.50;2441532;28;45207;-84
2022/03/04 01:53:39;;;;;;;;;62.25;47.75;;;;;10.18;65.13;101506.72;2441482;28;45216;-84
2022/03/04 01:54:49;;;;;;;;;70.50;52.75;;;;;10.20;64.79;101511.06;2441687;28;46343;-85
2022/03/04 01:56:00;;;;;;;;;65.00;49.75;;;;;10.17;65.26;101503.25;2440600;28;44555;-86
2022/03/04 01:57:10;;;;;;;;;62.25;47.00;;;;;10.20;65.23;101499.69;2433439;28;47318;-80
2022/03/04 01:58:20;;;;;;;;;64.25;50.75;;;;;10.17;65.21;101495.38;2443806;28;44715;-80
2022/03/04 01:59:31;;;;;;;;;65.00;50.25;;;;;10.20;65.65;101497.06;2447745;28;46225;-80
2022/03/04 02:00:41;;;;;;;;;64.50;50.50;;;;;10.21;65.61;101501.44;2441654;28;45441;-80
2022/03/04 02:01:52;;;;;;;;;69.25;51.25;;;;;10.23;65.33;101499.63;2440363;28;45602;-80
2022/03/04 02:03:09;;;;;;;;;62.75;48.75;;;;;10.25;65.61;101497.84;2441311;28;45405;-80
2022/03/04 02:04:24;;;;;;;;;63.75;51.00;;;;;10.24;65.57;101497.00;2441447;28;46277;-80
2022/03/04 02:05:34;;;;;;;;;65.25;51.00;;;;;10.26;65.65;101494.31;2441239;28;44680;-80
2022/03/04 02:06:44;;;;;;;;;63.00;49.00;;;;;10.30;65.57;101496.00;2441240;28;45369;-80
2022/03/04 02:07:55;;;;;;;;;64.25;51.25;;;;;10.29;65.54;101493.41;2440586;28;45408;-80
2022/03/04 02:09:05;;;;;;;;;67.00;51.50;;;;;10.29;65.41;101483.75;2451668;27;47066;-80
2022/03/04 02:10:15;;;;;;;;;67.75;51.50;;;;;10.32;65.33;101485.47;2451798;27;45318;-80
2022/03/04 02:11:26;;;;;;;;;68.00;51.00;;;;;10.30;65.57;101482.84;2449032;27;45362;-80
2022/03/04 02:12:37;;;;;;;;;64.50;50.00;;;;;10.29;65.24;101475.88;2442470;28;45413;-80
2022/03/04 02:13:47;;;;;;;;;61.00;49.00;;;;;10.31;65.09;101478.47;2444154;28;45235;-80
2022/03/04 02:14:58;;;;;;;;;65.00;49.50;;;;;10.30;65.35;101474.97;2441383;28;45215;-80
2022/03/04 02:16:29;;;;;;;;;67.00;51.25;;;;;10.31;65.37;101481.97;2441346;28;46040;-80
2022/03/04 02:17:39;;;;;;;;;64.50;50.50;;;;;10.29;65.29;101477.63;2441208;28;45250;-80
2022/03/04 02:18:49;;;;;;;;;64.75;50.75;;;;;10.28;65.20;101471.50;2441130;28;45255;-80
2022/03/04 02:20:01;;;;;;;;;57.00;47.00;;;;;10.28;64.97;101476.75;2441291;28;44778;-80
2022/03/04 02:21:13;;;;;;;;;64.75;51.00;;;;;10.28;65.23;101481.16;2441313;28;45392;-80
2022/03/04 02:22:24;;;;;;;;;64.00;49.50;;;;;10.26;65.01;101478.56;2441351;27;45153;-80
2022/03/04 02:23:34;;;;;;;;;61.75;49.00;;;;;10.28;64.93;101482.03;2441054;28;45438;-80
2022/03/04 02:24:45;;;;;;;;;59.00;47.00;;;;;10.24;65.28;101475.97;2441338;28;45410;-81
2022/03/04 02:25:55;;;;;;;;;63.00;48.75;;;;;10.24;64.80;101477.72;2441391;28;46184;-81
2022/03/04 02:27:05;;;;;;;;;62.75;49.00;;;;;10.25;65.10;101476.81;2445337;28;45441;-81
2022/03/04 02:28:18;;;;;;;;;60.25;47.75;;;;;10.24;65.02;101477.72;2448356;27;45504;-81
2022/03/04 02:29:30;;;;;;;;;67.00;50.00;;;;;10.24;64.85;101475.09;2443024;28;45152;-81
2022/03/04 02:30:41;;;;;;;;;61.00;48.50;;;;;10.20;64.77;101470.78;2449039;28;46184;-81
2022/03/04 02:31:52;;;;;;;;;61.50;48.00;;;;;10.20;64.97;101481.28;2450812;28;45337;-81
2022/03/04 02:33:04;;;;;;;;;65.00;51.50;;;;;10.17;65.01;101478.75;2450714;27;46339;-81
2022/03/04 02:34:15;;;;;;;;;61.50;48.25;;;;;10.13;64.85;101470.91;2451093;28;45234;-81
2022/03/04 02:35:27;;;;;;;;;59.00;47.00;;;;;10.14;65.04;101469.16;2450151;27;45547;-81
2022/03/04 02:36:38;;;;;;;;;56.25;46.00;;;;;10.10;65.10;101470.97;2453062;27;45206;-81
2022/03/04 02:37:48;;;;;;;;;62.75;48.00;;;;;10.10;64.99;101467.50;2441343;28;45229;-81
2022/03/04 02:38:59;;;;;;;;;63.00;48.75;;;;;10.07;65.01;101463.16;2441189;28;45223;-81
2022/03/04 02:40:10;;;;;;;;;62.00;47.75;;;;;10.06;65.08;101465.81;2440956;28;45263;-81
2022/03/04 02:41:21;;;;;;;;;59.00;45.75;;;;;10.05;65.17;101475.44;2441263;28;45211;-81
2022/03/04 02:42:31;;;;;;;;;61.75;47.25;;;;;10.04;64.82;101472.84;2441012;28;45346;-88
2022/03/04 02:43:41;;;;;;;;;66.75;47.50;;;;;10.03;65.09;101474.59;2440689;28;44864;-87
2022/03/04 02:44:52;;;;;;;;;67.50;50.50;;;;;10.01;64.80;101468.53;2440604;28;45362;-87
2022/03/04 02:46:02;;;;;;;;;62.25;48.50;;;;;10.03;64.91;101477.22;2440339;28;45347;-87
2022/03/04 02:47:12;;;;;;;;;63.25;48.00;;;;;9.98;65.06;101473.81;2433143;28;47101;-86
2022/03/04 02:48:23;;;;;;;;;60.00;47.00;;;;;9.98;64.97;101476.44;2440778;28;45284;-87
2022/03/04 02:49:33;;;;;;;;;60.00;46.75;;;;;9.94;65.17;101478.28;2445250;28;47434;-87
2022/03/04 02:50:43;;;;;;;;;64.50;48.25;;;;;9.97;65.36;101480.84;2446285;28;45376;-80
2022/03/04 02:51:54;;;;;;;;;50.50;39.75;;;;;9.94;65.10;101478.28;2449008;27;45488;-80
2022/03/04 02:53:04;;;;;;;;;45.25;32.25;;;;;9.95;65.36;101481.78;2450994;27;44688;-80
2022/03/04 02:54:15;;;;;;;;;62.25;49.50;;;;;9.93;65.03;101475.66;2441863;27;45594;-80
2022/03/04 02:55:25;;;;;;;;;63.50;49.50;;;;;9.93;65.39;101480.91;2445966;28;45472;-80
2022/03/04 02:56:36;;;;;;;;;63.00;50.50;;;;;9.92;65.39;101476.56;2450606;27;45371;-80
2022/03/04 02:57:47;;;;;;;;;57.50;44.75;;;;;9.92;65.34;101487.09;2448761;27;45215;-80
2022/03/04 02:58:57;;;;;;;;;61.00;45.75;;;;;9.92;65.55;101481.84;2440892;28;45415;-80
2022/03/04 03:00:09;;;;;;;;;59.00;48.25;;;;;9.93;65.50;101486.16;2441028;28;45160;-81
2022/03/04 03:01:19;;;;;;;;;61.25;47.75;;;;;9.91;65.34;101483.59;2441110;28;45604;-82
2022/03/04 03:02:29;;;;;;;;;60.75;46.75;;;;;9.90;65.44;101476.63;2449940;28;45253;-82
2022/03/04 03:03:40;;;;;;;;;56.50;43.50;;;;;9.90;65.49;101479.25;2445121;27;46502;-83
2022/03/04 03:04:50;;;;;;;;;65.50;48.25;;;;;9.88;65.38;101479.25;2442461;28;45264;-83
2022/03/04 03:06:01;;;;;;;;;64.50;47.00;;;;;9.90;65.53;101481.88;2449973;27;46585;-82
2022/03/04 03:07:11;;;;;;;;;60.75;47.00;;;;;9.89;65.94;101480.13;2448731;28;45519;-82
2022/03/04 03:08:21;;;;;;;;;57.75;46.25;;;;;9.90;65.88;101477.47;2446525;27;45416;-80
2022/03/04 03:09:32;;;;;;;;;59.25;46.50;;;;;9.93;65.64;101480.91;2441008;28;44689;-79
2022/03/04 03:10:42;;;;;;;;;55.25;45.25;;;;;9.92;65.97;101489.72;2445037;28;45480;-79
2022/03/04 03:11:53;;;;;;;;;60.00;46.25;;;;;9.94;66.23;101482.66;2444134;27;45456;-79
2022/03/04 03:13:03;;;;;;;;;62.25;46.75;;;;;9.95;66.13;101473.91;2443172;28;46460;-78
2022/03/04 03:14:14;;;;;;;;;63.00;48.75;;;;;9.97;66.28;101482.63;2452061;28;44730;-78
2022/03/04 03:15:24;;;;;;;;;59.50;47.00;;;;;9.98;66.17;101477.31;2443053;27;45326;-78
2022/03/04 03:16:34;;;;;;;;;61.50;48.00;;;;;9.98;66.05;101479.06;2444294;28;44775;-78
2022/03/04 03:17:45;;;;;;;;;63.25;49.00;;;;;9.99;65.83;101472.94;2442128;28;45446;-78
2022/03/04 03:18:55;;;;;;;;;59.50;46.00;;;;;10.00;66.11;101480.78;2442850;28;45158;-78
2022/03/04 03:20:08;;;;;;;;;60.50;47.00;;;;;10.01;65.96;101481.66;2442268;28;46006;-78
2022/03/04 03:21:18;;;;;;;;;63.75;47.75;;;;;10.00;66.13;101477.31;2446979;28;45243;-78
2022/03/04 03:22:28;;;;;;;;;55.75;45.25;;;;;10.02;66.20;101480.78;2449837;27;45389;-78
2022/03/04 03:23:39;;;;;;;;;57.75;47.25;;;;;10.03;66.35;101485.13;2449242;28;45218;-78
2022/03/04 03:24:49;;;;;;;;;66.75;49.75;;;;;10.05;66.38;101488.56;2445361;27;45195;-81
2022/03/04 03:26:00;;;;;;;;;59.75;47.00;;;;;10.05;66.23;101479.84;2442640;28;44620;-80
2022/03/04 03:27:10;;;;;;;;;62.25;46.50;;;;;10.08;66.37;101480.66;2442437;28;45251;-80
2022/03/04 03:28:21;;;;;;;;;64.00;48.50;;;;;10.07;66.21;101486.81;2442542;28;45222;-80
2022/03/04 03:29:31;;;;;;;;;57.50;45.25;;;;;10.09;66.36;101481.50;2441861;28;47145;-80
2022/03/04 03:30:41;;;;;;;;;61.50;46.50;;;;;10.11;66.34;101488.47;2441965;28;45528;-80
2022/03/04 03:31:52;;;;;;;;;62.25;46.50;;;;;10.11;66.13;101480.59;2442127;28;45476;-80
2022/03/04 03:33:02;;;;;;;;;57.00;45.50;;;;;10.13;66.50;101486.69;2442618;28;45327;-80
2022/03/04 03:34:14;;;;;;;;;59.00;47.00;;;;;10.13;66.31;101486.69;2451962;28;46199;-82
2022/03/04 03:35:24;;;;;;;;;56.50;45.75;;;;;10.15;66.36;101486.63;2445311;27;44725;-81
2022/03/04 03:36:35;;;;;;;;;58.50;46.00;;;;;10.16;66.61;101488.38;2460632;27;46112;-81
2022/03/04 03:37:45;;;;;;;;;61.00;48.00;;;;;10.20;65.84;101494.44;2442622;28;45413;-81
2022/03/04 03:38:55;;;;;;;;;62.00;48.50;;;;;10.21;66.39;101490.91;2442352;28;45392;-82
2022/03/04 03:40:09;;;;;;;;;60.25;48.00;;;;;10.22;66.46;101490.03;2441742;28;45400;-81
2022/03/04 03:41:19;;;;;;;;;60.25;47.00;;;;;10.24;66.58;101493.50;2441977;28;45323;-81
2022/03/04 03:42:29;;;;;;;;;63.50;49.25;;;;;10.25;66.42;101484.69;2451303;28;44709;-81
2022/03/04 03:43:40;;;;;;;;;58.50;47.25;;;;;10.27;66.25;101490.81;2447038;27;46050;-82
2022/03/04 03:44:51;;;;;;;;;60.75;46.25;;;;;10.26;66.14;101486.44;2442523;28;45227;-81
2022/03/04 03:46:01;;;;;;;;;63.25;48.75;;;;;10.27;66.45;101484.69;2442490;28;46168;-81
2022/03/04 03:47:11;;;;;;;;;57.25;46.00;;;;;10.29;66.07;101480.25;2442853;28;45504;-81
2022/03/04 03:48:22;;;;;;;;;59.00;46.75;;;;;10.31;66.22;101484.59;2452244;27;45261;-81
2022/03/04 03:49:32;;;;;;;;;59.00;46.50;;;;;10.31;67.09;101484.59;2447907;27;45286;-81
2022/03/04 03:50:42;;;;;;;;;58.25;44.50;;;;;10.32;66.56;101483.69;2449545;27;46205;-81
2022/03/04 03:51:53;;;;;;;;;57.75;45.00;;;;;10.35;66.41;101488.00;2442525;28;45207;-81
2022/03/04 03:53:04;;;;;;;;;60.00;46.50;;;;;10.37;66.27;101495.88;2442215;28;46294;-83
2022/03/04 03:54:15;;;;;;;;;56.50;44.50;;;;;10.40;66.43;101501.06;2442341;28;45520;-80
2022/03/04 03:55:25;;;;;;;;;58.00;44.25;;;;;10.39;66.24;101491.47;2442389;28;45240;-81
2022/03/04 03:56:36;;;;;;;;;62.25;46.50;;;;;10.41;66.58;101494.91;2450853;28;45421;-80
2022/03/04 03:57:46;;;;;;;;;61.00;45.00;;;;;10.43;66.37;101495.75;2451500;28;45304;-79
2022/03/04 03:58:57;;;;;;;;;62.50;47.75;;;;;10.44;66.54;101497.50;2450310;27;45219;-79
2022/03/04 04:00:09;;;;;;;;;59.75;45.75;;;;;10.42;66.76;101488.78;2442550;28;46320;-79
2022/03/04 04:01:19;;;;;;;;;53.75;42.75;;;;;10.44;66.62;101486.97;2442332;28;45163;-79
2022/03/04 04:02:30;;;;;;;;;58.00;45.75;;;;;10.46;66.12;101491.31;2441938;28;45257;-79
2022/03/04 04:03:40;;;;;;;;;58.00;45.00;;;;;10.47;66.83;101482.50;2442494;28;45239;-80
2022/03/04 04:04:50;;;;;;;;;57.50;45.75;;;;;10.49;66.34;101490.38;2442063;28;46326;-79
2022/03/04 04:06:02;;;;;;;;;57.00;46.00;;;;;10.50;66.46;101485.97;2442451;28;45129;-80
2022/03/04 04:07:13;;;;;;;;;56.75;45.75;;;;;10.50;66.38;101486.84;2442408;28;46431;-80
2022/03/04 04:08:23;;;;;;;;;56.75;44.25;;;;;10.53;66.51;101492.06;2442577;28;44675;-80
2022/03/04 04:09:34;;;;;;;;;59.00;45.75;;;;;10.54;66.55;101499.03;2442120;28;45298;-80
2022/03/04 04:10:44;;;;;;;;;58.75;45.50;;;;;10.53;66.62;101497.31;2443795;28;45529;-80
2022/03/04 04:11:54;;;;;;;;;57.75;44.75;;;;;10.57;66.42;101501.63;2446910;28;46292;-80
2022/03/04 04:13:05;;;;;;;;;63.00;46.25;;;;;10.59;66.25;101501.59;2450359;27;45404;-80
2022/03/04 04:14:15;;;;;;;;;62.00;46.75;;;;;10.60;66.47;101507.69;2442203;28;45445;-80
2022/03/04 04:15:26;;;;;;;;;62.25;48.00;;;;;10.59;66.50;101501.59;2442239;28;45236;-80
2022/03/04 04:16:37;;;;;;;;;60.50;47.00;;;;;10.61;66.20;101504.19;2441954;28;45238;-80
2022/03/04 04:17:47;;;;;;;;;61.75;46.00;;;;;10.64;66.27;101504.13;2442107;28;45231;-79
2022/03/04 04:18:58;;;;;;;;;62.75;47.50;;;;;10.64;66.09;101504.97;2442186;28;46122;-79
2022/03/04 04:20:09;;;;;;;;;62.75;48.00;;;;;10.65;66.33;101501.47;2442130;28;44555;-79
2022/03/04 04:21:19;;;;;;;;;56.50;45.00;;;;;10.66;66.49;101500.56;2446192;28;46200;-79
2022/03/04 04:22:30;;;;;;;;;58.25;45.25;;;;;10.67;66.27;101499.66;2442351;28;44621;-79
2022/03/04 04:23:40;;;;;;;;;58.50;47.00;;;;;10.67;66.52;101497.03;2442289;28;45303;-80
2022/03/04 04:24:50;;;;;;;;;62.00;47.25;;;;;10.68;66.26;101500.53;2442267;28;44603;-80
2022/03/04 04:26:01;;;;;;;;;61.50;48.00;;;;;10.69;66.02;101503.13;2451372;28;46086;-80
2022/03/04 04:27:11;;;;;;;;;56.25;46.75;;;;;10.72;66.31;101506.59;2444222;27;45390;-80
2022/03/04 04:28:23;;;;;;;;;59.25;48.00;;;;;10.71;66.26;101504.88;2442984;28;45540;-80
2022/03/04 04:29:34;;;;;;;;;62.00;46.25;;;;;10.73;66.14;101503.94;2451644;27;45326;-79
2022/03/04 04:30:44;;;;;;;;;62.75;49.75;;;;;10.73;66.42;101505.69;2442006;28;45452;-82
2022/03/04 04:31:54;;;;;;;;;62.75;48.75;;;;;10.74;66.50;101508.28;2442047;28;45181;-82
2022/03/04 04:33:05;;;;;;;;;60.25;47.25;;;;;10.79;66.31;101516.94;2442034;28;45389;-78
2022/03/04 04:34:16;;;;;;;;;65.00;51.25;;;;;10.80;66.53;101525.69;2450288;27;45342;-83
2022/03/04 04:35:26;;;;;;;;;70.50;53.00;;;;;10.79;66.41;101516.94;2441549;28;46529;-83
2022/03/04 04:36:37;;;;;;;;;60.25;48.00;;;;;10.79;66.56;101511.69;2444750;27;45205;-82
2022/03/04 04:37:48;;;;;;;;;71.50;54.50;;;;;10.80;66.71;101512.56;2441852;28;46405;-82
2022/03/04 04:38:58;;;;;;;;;66.75;52.50;;;;;10.85;66.40;101515.06;2442130;28;45153;-82
2022/03/04 04:40:09;;;;;;;;;66.00;52.25;;;;;10.82;66.38;101512.50;2441111;28;47289;-82
2022/03/04 04:41:19;;;;;;;;;70.00;54.00;;;;;10.87;66.57;101515.91;2441575;28;44534;-83
2022/03/04 04:42:30;;;;;;;;;72.00;54.00;;;;;10.85;66.70;101513.31;2441863;28;45425;-83
2022/03/04 04:43:41;;;;;;;;;68.25;55.25;;;;;10.89;66.47;101519.41;2442155;28;45181;-82
2022/03/04 04:44:52;;;;;;;;;70.00;55.75;;;;;10.90;66.61;101515.84;2446844;28;45386;-82
2022/03/04 04:46:03;;;;;;;;;69.25;55.25;;;;;10.91;66.83;101526.31;2449095;28;45410;-82
2022/03/04 04:47:14;;;;;;;;;71.00;55.25;;;;;10.92;66.72;101527.19;2441128;28;45636;-82
2022/03/04 04:48:24;;;;;;;;;68.50;52.50;;;;;10.95;66.59;101523.63;2450328;28;44673;-83
2022/03/04 04:49:36;;;;;;;;;68.75;53.25;;;;;10.95;66.43;101521.00;2451551;27;46313;-83
2022/03/04 04:50:47;;;;;;;;;67.25;52.75;;;;;10.99;66.74;101527.91;2446518;28;45294;-83
2022/03/04 04:51:57;;;;;;;;;68.50;52.50;;;;;10.98;66.55;101520.94;2441844;28;46278;-83
2022/03/04 04:53:08;;;;;;;;;70.00;52.00;;;;;10.99;66.60;101531.41;2441974;28;44533;-84
2022/03/04 04:54:18;;;;;;;;;67.25;52.00;;;;;11.00;66.93;101524.41;2442018;28;46169;-85
2022/03/04 04:55:29;;;;;;;;;67.00;53.00;;;;;11.00;66.39;101529.66;2442058;28;45244;-84
2022/03/04 04:56:39;;;;;;;;;67.75;52.00;;;;;11.03;66.57;101526.97;2442292;28;45245;-84
2022/03/04 04:57:50;;;;;;;;;64.50;49.75;;;;;11.02;66.56;101523.47;2442071;27;45266;-81
2022/03/04 04:59:00;;;;;;;;;69.25;55.75;;;;;11.03;66.31;101525.22;2447746;28;45267;-82
2022/03/04 05:00:11;;;;;;;;;67.50;52.50;;;;;11.07;66.41;101522.50;2451695;27;45312;-82
2022/03/04 05:01:21;;;;;;;;;67.50;53.00;;;;;11.07;66.44;101530.38;2451594;27;45479;-82
2022/03/04 05:02:32;;;;;;;;;66.00;52.00;;;;;11.06;66.61;101526.03;2449833;28;45447;-82
2022/03/04 05:03:43;;;;;;;;;68.50;54.50;;;;;11.06;66.60;101526.91;2445925;28;45346;-82
2022/03/04 05:04:54;;;;;;;;;72.50;56.50;;;;;11.09;66.46;101531.22;2443287;28;45263;-82
2022/03/04 05:06:04;;;;;;;;;67.75;54.50;;;;;11.08;66.38;101526.88;2451515;27;46408;-82
2022/03/04 05:07:14;;;;;;;;;71.50;57.50;;;;;11.09;66.40;101528.56;2444001;27;45371;-82
2022/03/04 05:08:26;;;;;;;;;68.00;53.25;;;;;11.10;66.36;101532.97;2441939;28;46068;-82
2022/03/04 05:09:37;;;;;;;;;68.00;54.25;;;;;11.09;66.28;101531.22;2441962;28;45405;-83
2022/03/04 05:10:48;;;;;;;;;70.25;58.75;;;;;11.10;66.42;101530.31;2446493;28;46324;-85
2022/03/04 05:11:58;;;;;;;;;72.00;57.25;;;;;11.10;66.38;101525.94;2446567;28;45213;-85
2022/03/04 05:13:09;;;;;;;;;71.25;56.50;;;;;11.13;66.57;101530.25;2442699;28;48018;-85
2022/03/04 05:14:19;;;;;;;;;72.00;53.25;;;;;11.11;66.48;101529.44;2441467;28;45261;-85
2022/03/04 05:15:30;;;;;;;;;70.25;57.75;;;;;11.14;66.46;101534.59;2449189;28;46460;-85
2022/03/04 05:16:40;;;;;;;;;73.00;58.50;;;;;11.12;65.95;101537.28;2451417;27;45219;-83
2022/03/04 05:17:51;;;;;;;;;71.50;55.50;;;;;11.14;66.53;101537.25;2450424;28;47085;-84
2022/03/04 05:19:01;;;;;;;;;74.50;54.00;;;;;11.11;66.42;101537.34;2450907;28;45247;-83
2022/03/04 05:20:11;;;;;;;;;70.00;54.75;;;;;11.12;66.37;101536.41;2450526;28;45588;-84
2022/03/04 05:21:22;;;;;;;;;67.75;53.75;;;;;11.13;66.24;101535.53;2442388;28;45437;-84